sensor_id;sensor_type;location;lat;lon;timestamp;temperature;humidity
35593;DHT22;64447;52.140;5.602;2023-02-23T00:01:16;10.50;98.60
35593;DHT22;64447;52.140;5.602;2023-02-23T00:03:42;10.50;98.50
35593;DHT22;64447;52.140;5.602;2023-02-23T00:06:08;10.60;98.50
35593;DHT22;64447;52.140;5.602;2023-02-23T00:08:35;10.80;98.60
35593;DHT22;64447;52.140;5.602;2023-02-23T00:11:06;10.50;98.40
35593;DHT22;64447;52.140;5.602;2023-02-23T00:13:33;10.60;98.30
35593;DHT22;64447;52.140;5.602;2023-02-23T00:16:10;10.60;98.40
35593;DHT22;64447;52.140;5.602;2023-02-23T00:18:44;10.70;98.20
35593;DHT22;64447;52.140;5.602;2023-02-23T00:21:29;10.70;98.10
35593;DHT22;64447;52.140;5.602;2023-02-23T00:24:07;10.80;97.90
35593;DHT22;64447;52.140;5.602;2023-02-23T00:26:34;10.80;97.90
35593;DHT22;64447;52.140;5.602;2023-02-23T00:29:03;10.80;97.70
35593;DHT22;64447;52.140;5.602;2023-02-23T00:31:29;10.90;97.70
35593;DHT22;64447;52.140;5.602;2023-02-23T00:33:57;10.80;97.50
35593;DHT22;64447;52.140;5.602;2023-02-23T00:36:26;11.30;97.60
35593;DHT22;64447;52.140;5.602;2023-02-23T00:38:54;10.80;97.30
35593;DHT22;64447;52.140;5.602;2023-02-23T00:41:20;10.70;97.60
35593;DHT22;64447;52.140;5.602;2023-02-23T00:43:58;10.60;98.10
35593;DHT22;64447;52.140;5.602;2023-02-23T00:46:27;10.40;98.00
35593;DHT22;64447;52.140;5.602;2023-02-23T00:48:54;10.10;98.70
35593;DHT22;64447;52.140;5.602;2023-02-23T00:51:20;9.80;99.90
35593;DHT22;64447;52.140;5.602;2023-02-23T00:53:46;9.60;99.90
35593;DHT22;64447;52.140;5.602;2023-02-23T00:56:13;9.50;99.90
35593;DHT22;64447;52.140;5.602;2023-02-23T00:58:40;9.40;99.90
35593;DHT22;64447;52.140;5.602;2023-02-23T01:01:11;9.50;99.90
35593;DHT22;64447;52.140;5.602;2023-02-23T01:03:38;9.60;99.90
35593;DHT22;64447;52.140;5.602;2023-02-23T01:06:07;9.50;99.90
35593;DHT22;64447;52.140;5.602;2023-02-23T01:08:35;9.50;99.90
35593;DHT22;64447;52.140;5.602;2023-02-23T01:11:06;9.60;99.90
35593;DHT22;64447;52.140;5.602;2023-02-23T01:13:31;9.60;99.90
35593;DHT22;64447;52.140;5.602;2023-02-23T01:15:57;9.50;99.90
35593;DHT22;64447;52.140;5.602;2023-02-23T01:18:23;9.30;99.90
35593;DHT22;64447;52.140;5.602;2023-02-23T01:20:48;9.30;99.90
35593;DHT22;64447;52.140;5.602;2023-02-23T01:23:15;9.40;99.90
35593;DHT22;64447;52.140;5.602;2023-02-23T01:25:43;9.40;99.90
35593;DHT22;64447;52.140;5.602;2023-02-23T01:28:09;9.30;99.90
35593;DHT22;64447;52.140;5.602;2023-02-23T01:33:59;9.20;99.90
35593;DHT22;64447;52.140;5.602;2023-02-23T01:36:25;9.60;99.90
35593;DHT22;64447;52.140;5.602;2023-02-23T01:38:53;9.20;99.90
35593;DHT22;64447;52.140;5.602;2023-02-23T01:41:22;9.20;99.90
35593;DHT22;64447;52.140;5.602;2023-02-23T01:44:04;9.20;99.90
35593;DHT22;64447;52.140;5.602;2023-02-23T01:46:35;9.10;99.90
35593;DHT22;64447;52.140;5.602;2023-02-23T01:49:02;9.40;99.90
35593;DHT22;64447;52.140;5.602;2023-02-23T01:51:35;9.70;99.90
35593;DHT22;64447;52.140;5.602;2023-02-23T01:54:08;9.90;99.90
35593;DHT22;64447;52.140;5.602;2023-02-23T01:56:40;10.30;99.90
35593;DHT22;64447;52.140;5.602;2023-02-23T01:59:11;9.90;99.90
35593;DHT22;64447;52.140;5.602;2023-02-23T02:01:41;9.90;99.90
35593;DHT22;64447;52.140;5.602;2023-02-23T02:04:08;10.10;99.90
35593;DHT22;64447;52.140;5.602;2023-02-23T02:06:42;10.20;99.50
35593;DHT22;64447;52.140;5.602;2023-02-23T02:09:12;10.80;99.40
35593;DHT22;64447;52.140;5.602;2023-02-23T02:11:41;10.50;98.90
35593;DHT22;64447;52.140;5.602;2023-02-23T02:14:13;10.50;98.50
35593;DHT22;64447;52.140;5.602;2023-02-23T02:36:51;10.40;98.50
35593;DHT22;64447;52.140;5.602;2023-02-23T02:42:52;10.20;98.80
35593;DHT22;64447;52.140;5.602;2023-02-23T02:56:56;10.50;97.90
35593;DHT22;64447;52.140;5.602;2023-02-23T02:59:23;10.50;98.00
35593;DHT22;64447;52.140;5.602;2023-02-23T03:02:18;10.00;98.80
35593;DHT22;64447;52.140;5.602;2023-02-23T03:05:11;10.00;99.20
35593;DHT22;64447;52.140;5.602;2023-02-23T03:11:06;10.00;99.50
35593;DHT22;64447;52.140;5.602;2023-02-23T03:17:31;10.20;99.00
35593;DHT22;64447;52.140;5.602;2023-02-23T03:20:25;10.30;99.00
35593;DHT22;64447;52.140;5.602;2023-02-23T03:23:33;10.30;99.00
35593;DHT22;64447;52.140;5.602;2023-02-23T03:26:38;10.00;99.20
35593;DHT22;64447;52.140;5.602;2023-02-23T03:29:46;9.90;99.90
35593;DHT22;64447;52.140;5.602;2023-02-23T03:39:21;10.10;99.70
35593;DHT22;64447;52.140;5.602;2023-02-23T03:41:59;10.10;99.90
35593;DHT22;64447;52.140;5.602;2023-02-23T03:48:09;10.30;99.60
35593;DHT22;64447;52.140;5.602;2023-02-23T03:50:57;10.40;99.40
35593;DHT22;64447;52.140;5.602;2023-02-23T03:56:35;10.60;99.00
35593;DHT22;64447;52.140;5.602;2023-02-23T03:59:24;10.50;98.80
35593;DHT22;64447;52.140;5.602;2023-02-23T04:02:10;10.50;98.80
35593;DHT22;64447;52.140;5.602;2023-02-23T04:05:00;10.50;99.20
35593;DHT22;64447;52.140;5.602;2023-02-23T04:07:46;10.40;99.10
35593;DHT22;64447;52.140;5.602;2023-02-23T04:10:34;10.40;98.90
35593;DHT22;64447;52.140;5.602;2023-02-23T04:13:26;10.50;98.60
35593;DHT22;64447;52.140;5.602;2023-02-23T04:15:56;10.50;98.60
35593;DHT22;64447;52.140;5.602;2023-02-23T04:18:26;10.60;98.80
35593;DHT22;64447;52.140;5.602;2023-02-23T04:20:52;10.50;98.60
35593;DHT22;64447;52.140;5.602;2023-02-23T04:23:17;10.50;98.40
35593;DHT22;64447;52.140;5.602;2023-02-23T04:25:43;10.40;98.70
35593;DHT22;64447;52.140;5.602;2023-02-23T04:28:09;10.40;98.80
35593;DHT22;64447;52.140;5.602;2023-02-23T04:30:35;10.40;98.80
35593;DHT22;64447;52.140;5.602;2023-02-23T04:33:00;10.70;99.10
35593;DHT22;64447;52.140;5.602;2023-02-23T04:35:27;10.50;99.00
35593;DHT22;64447;52.140;5.602;2023-02-23T04:37:54;10.70;99.00
35593;DHT22;64447;52.140;5.602;2023-02-23T04:40:20;10.50;98.90
35593;DHT22;64447;52.140;5.602;2023-02-23T04:42:46;10.50;98.70
35593;DHT22;64447;52.140;5.602;2023-02-23T04:45:11;10.60;98.60
35593;DHT22;64447;52.140;5.602;2023-02-23T04:47:37;10.60;98.40
35593;DHT22;64447;52.140;5.602;2023-02-23T04:50:03;10.60;98.40
35593;DHT22;64447;52.140;5.602;2023-02-23T04:52:29;10.60;98.30
35593;DHT22;64447;52.140;5.602;2023-02-23T04:54:55;10.60;98.30
35593;DHT22;64447;52.140;5.602;2023-02-23T04:57:21;10.60;98.20
35593;DHT22;64447;52.140;5.602;2023-02-23T04:59:47;10.60;98.20
35593;DHT22;64447;52.140;5.602;2023-02-23T05:02:12;10.60;98.40
35593;DHT22;64447;52.140;5.602;2023-02-23T05:04:38;10.60;98.50
35593;DHT22;64447;52.140;5.602;2023-02-23T05:07:04;10.60;98.50
35593;DHT22;64447;52.140;5.602;2023-02-23T05:09:30;10.50;98.50
35593;DHT22;64447;52.140;5.602;2023-02-23T05:11:56;10.50;98.50
35593;DHT22;64447;52.140;5.602;2023-02-23T05:14:22;10.50;98.50
35593;DHT22;64447;52.140;5.602;2023-02-23T05:16:47;10.40;98.60
35593;DHT22;64447;52.140;5.602;2023-02-23T05:19:14;10.40;98.80
35593;DHT22;64447;52.140;5.602;2023-02-23T05:21:40;10.40;99.00
35593;DHT22;64447;52.140;5.602;2023-02-23T05:24:06;10.30;99.20
35593;DHT22;64447;52.140;5.602;2023-02-23T05:26:32;10.30;99.20
35593;DHT22;64447;52.140;5.602;2023-02-23T05:28:58;10.20;99.20
35593;DHT22;64447;52.140;5.602;2023-02-23T05:34:46;10.10;99.70
35593;DHT22;64447;52.140;5.602;2023-02-23T05:37:11;10.10;99.70
35593;DHT22;64447;52.140;5.602;2023-02-23T05:39:37;9.90;99.90
35593;DHT22;64447;52.140;5.602;2023-02-23T05:42:03;9.70;99.90
35593;DHT22;64447;52.140;5.602;2023-02-23T05:44:28;9.30;99.90
35593;DHT22;64447;52.140;5.602;2023-02-23T05:46:54;9.80;99.90
35593;DHT22;64447;52.140;5.602;2023-02-23T05:49:20;9.10;99.90
35593;DHT22;64447;52.140;5.602;2023-02-23T05:51:45;9.20;99.90
35593;DHT22;64447;52.140;5.602;2023-02-23T05:54:11;9.30;99.90
35593;DHT22;64447;52.140;5.602;2023-02-23T05:56:38;9.30;99.90
35593;DHT22;64447;52.140;5.602;2023-02-23T05:59:04;9.20;99.90
35593;DHT22;64447;52.140;5.602;2023-02-23T06:04:51;9.10;99.90
35593;DHT22;64447;52.140;5.602;2023-02-23T06:07:17;9.00;99.90
35593;DHT22;64447;52.140;5.602;2023-02-23T06:09:42;9.10;99.90
35593;DHT22;64447;52.140;5.602;2023-02-23T06:12:08;9.10;99.90
35593;DHT22;64447;52.140;5.602;2023-02-23T06:14:34;9.00;99.90
35593;DHT22;64447;52.140;5.602;2023-02-23T06:17:00;9.10;99.90
35593;DHT22;64447;52.140;5.602;2023-02-23T06:19:25;8.90;99.90
35593;DHT22;64447;52.140;5.602;2023-02-23T06:21:51;9.10;99.90
35593;DHT22;64447;52.140;5.602;2023-02-23T06:24:18;9.10;99.90
35593;DHT22;64447;52.140;5.602;2023-02-23T06:26:44;8.80;99.90
35593;DHT22;64447;52.140;5.602;2023-02-23T06:29:10;8.30;99.90
35593;DHT22;64447;52.140;5.602;2023-02-23T06:34:57;8.10;99.90
35593;DHT22;64447;52.140;5.602;2023-02-23T06:37:24;8.50;99.90
35593;DHT22;64447;52.140;5.602;2023-02-23T06:39:49;8.60;99.90
35593;DHT22;64447;52.140;5.602;2023-02-23T06:42:16;8.50;99.90
35593;DHT22;64447;52.140;5.602;2023-02-23T06:44:41;8.50;99.90
35593;DHT22;64447;52.140;5.602;2023-02-23T06:47:07;8.60;99.90
35593;DHT22;64447;52.140;5.602;2023-02-23T06:49:33;8.80;99.90
35593;DHT22;64447;52.140;5.602;2023-02-23T06:51:59;9.10;99.90
35593;DHT22;64447;52.140;5.602;2023-02-23T06:54:24;9.00;99.90
35593;DHT22;64447;52.140;5.602;2023-02-23T06:56:50;9.20;99.90
35593;DHT22;64447;52.140;5.602;2023-02-23T06:59:17;9.30;99.90
35593;DHT22;64447;52.140;5.602;2023-02-23T07:05:05;9.40;99.90
35593;DHT22;64447;52.140;5.602;2023-02-23T07:07:30;9.50;99.90
35593;DHT22;64447;52.140;5.602;2023-02-23T07:09:57;9.60;99.90
35593;DHT22;64447;52.140;5.602;2023-02-23T07:12:22;9.70;99.90
35593;DHT22;64447;52.140;5.602;2023-02-23T07:14:48;9.70;99.90
35593;DHT22;64447;52.140;5.602;2023-02-23T07:17:13;9.80;99.90
35593;DHT22;64447;52.140;5.602;2023-02-23T07:19:39;9.80;99.90
35593;DHT22;64447;52.140;5.602;2023-02-23T07:22:05;9.80;99.90
35593;DHT22;64447;52.140;5.602;2023-02-23T07:24:30;9.80;99.90
35593;DHT22;64447;52.140;5.602;2023-02-23T07:26:56;9.90;99.90
35593;DHT22;64447;52.140;5.602;2023-02-23T07:29:22;9.80;99.90
35593;DHT22;64447;52.140;5.602;2023-02-23T07:35:14;9.70;99.90
35593;DHT22;64447;52.140;5.602;2023-02-23T07:37:39;9.70;99.90
35593;DHT22;64447;52.140;5.602;2023-02-23T07:40:07;9.70;99.90
35593;DHT22;64447;52.140;5.602;2023-02-23T07:42:32;9.70;99.90
35593;DHT22;64447;52.140;5.602;2023-02-23T07:44:58;9.80;99.90
35593;DHT22;64447;52.140;5.602;2023-02-23T07:47:23;9.40;99.90
35593;DHT22;64447;52.140;5.602;2023-02-23T07:49:56;9.20;99.90
35593;DHT22;64447;52.140;5.602;2023-02-23T07:52:21;9.20;99.90
35593;DHT22;64447;52.140;5.602;2023-02-23T07:54:47;9.40;99.90
35593;DHT22;64447;52.140;5.602;2023-02-23T07:57:13;9.40;99.90
35593;DHT22;64447;52.140;5.602;2023-02-23T07:59:38;9.10;99.90
35593;DHT22;64447;52.140;5.602;2023-02-23T08:05:26;9.20;99.90
35593;DHT22;64447;52.140;5.602;2023-02-23T08:07:53;9.20;99.90
35593;DHT22;64447;52.140;5.602;2023-02-23T08:10:20;9.10;99.90
35593;DHT22;64447;52.140;5.602;2023-02-23T08:12:46;9.00;99.90
35593;DHT22;64447;52.140;5.602;2023-02-23T08:15:11;9.00;99.90
35593;DHT22;64447;52.140;5.602;2023-02-23T08:17:37;9.00;99.90
35593;DHT22;64447;52.140;5.602;2023-02-23T08:20:04;9.20;99.90
35593;DHT22;64447;52.140;5.602;2023-02-23T08:22:30;9.00;99.90
35593;DHT22;64447;52.140;5.602;2023-02-23T08:24:56;9.00;99.90
35593;DHT22;64447;52.140;5.602;2023-02-23T08:27:22;8.80;99.90
35593;DHT22;64447;52.140;5.602;2023-02-23T08:29:48;8.90;99.90
35593;DHT22;64447;52.140;5.602;2023-02-23T08:35:38;9.00;99.90
35593;DHT22;64447;52.140;5.602;2023-02-23T08:38:03;9.20;99.90
35593;DHT22;64447;52.140;5.602;2023-02-23T08:40:29;9.20;99.90
35593;DHT22;64447;52.140;5.602;2023-02-23T08:42:55;9.40;99.90
35593;DHT22;64447;52.140;5.602;2023-02-23T08:45:20;9.20;99.90
35593;DHT22;64447;52.140;5.602;2023-02-23T08:47:46;9.00;99.90
35593;DHT22;64447;52.140;5.602;2023-02-23T08:50:12;8.70;99.90
35593;DHT22;64447;52.140;5.602;2023-02-23T08:52:38;8.60;99.90
35593;DHT22;64447;52.140;5.602;2023-02-23T08:55:05;8.70;99.90
35593;DHT22;64447;52.140;5.602;2023-02-23T08:57:35;8.70;99.90
35593;DHT22;64447;52.140;5.602;2023-02-23T09:00:01;8.70;99.90
35593;DHT22;64447;52.140;5.602;2023-02-23T09:05:49;8.80;99.90
35593;DHT22;64447;52.140;5.602;2023-02-23T09:08:15;8.90;99.90
35593;DHT22;64447;52.140;5.602;2023-02-23T09:10:40;8.80;99.90
35593;DHT22;64447;52.140;5.602;2023-02-23T09:13:11;8.90;99.90
35593;DHT22;64447;52.140;5.602;2023-02-23T09:15:40;8.80;99.90
35593;DHT22;64447;52.140;5.602;2023-02-23T09:18:07;8.70;99.90
35593;DHT22;64447;52.140;5.602;2023-02-23T09:20:34;8.70;99.90
35593;DHT22;64447;52.140;5.602;2023-02-23T09:23:00;8.70;99.90
35593;DHT22;64447;52.140;5.602;2023-02-23T09:25:26;8.80;99.90
35593;DHT22;64447;52.140;5.602;2023-02-23T09:27:54;8.90;99.90
35593;DHT22;64447;52.140;5.602;2023-02-23T09:30:25;9.20;99.90
35593;DHT22;64447;52.140;5.602;2023-02-23T09:32:52;9.10;99.90
35593;DHT22;64447;52.140;5.602;2023-02-23T09:35:20;9.10;99.90
35593;DHT22;64447;52.140;5.602;2023-02-23T09:37:47;9.10;99.90
35593;DHT22;64447;52.140;5.602;2023-02-23T09:40:19;9.40;99.90
35593;DHT22;64447;52.140;5.602;2023-02-23T09:52:02;9.30;99.90
35593;DHT22;64447;52.140;5.602;2023-02-23T09:54:33;9.20;99.90
35593;DHT22;64447;52.140;5.602;2023-02-23T09:57:03;9.20;99.90
35593;DHT22;64447;52.140;5.602;2023-02-23T09:59:29;9.10;99.90
35593;DHT22;64447;52.140;5.602;2023-02-23T10:04:41;9.10;99.90
35593;DHT22;64447;52.140;5.602;2023-02-23T10:10:12;8.90;99.90
35593;DHT22;64447;52.140;5.602;2023-02-23T10:21:39;8.90;99.90
35593;DHT22;64447;52.140;5.602;2023-02-23T10:24:13;8.80;99.90
35593;DHT22;64447;52.140;5.602;2023-02-23T10:26:48;8.80;99.90
35593;DHT22;64447;52.140;5.602;2023-02-23T10:29:22;8.90;99.90
35593;DHT22;64447;52.140;5.602;2023-02-23T10:35:15;9.00;99.90
35593;DHT22;64447;52.140;5.602;2023-02-23T10:37:42;8.90;99.90
35593;DHT22;64447;52.140;5.602;2023-02-23T10:40:20;8.90;99.90
35593;DHT22;64447;52.140;5.602;2023-02-23T10:42:47;9.00;99.90
35593;DHT22;64447;52.140;5.602;2023-02-23T10:45:15;8.90;99.90
35593;DHT22;64447;52.140;5.602;2023-02-23T10:51:19;8.80;99.90
35593;DHT22;64447;52.140;5.602;2023-02-23T10:53:46;8.80;99.90
35593;DHT22;64447;52.140;5.602;2023-02-23T10:56:16;8.70;99.90
35593;DHT22;64447;52.140;5.602;2023-02-23T10:58:45;8.80;99.90
35593;DHT22;64447;52.140;5.602;2023-02-23T11:01:13;8.70;99.90
35593;DHT22;64447;52.140;5.602;2023-02-23T11:06:05;8.90;99.90
35593;DHT22;64447;52.140;5.602;2023-02-23T11:08:35;9.00;99.90
35593;DHT22;64447;52.140;5.602;2023-02-23T11:13:40;9.10;99.90
35593;DHT22;64447;52.140;5.602;2023-02-23T11:16:23;9.30;99.90
35593;DHT22;64447;52.140;5.602;2023-02-23T11:18:52;9.40;99.90
35593;DHT22;64447;52.140;5.602;2023-02-23T11:21:28;9.20;99.90
35593;DHT22;64447;52.140;5.602;2023-02-23T11:23:56;9.30;99.90
35593;DHT22;64447;52.140;5.602;2023-02-23T11:26:32;9.30;99.90
35593;DHT22;64447;52.140;5.602;2023-02-23T11:29:03;9.60;99.90
35593;DHT22;64447;52.140;5.602;2023-02-23T11:31:35;10.20;99.90
35593;DHT22;64447;52.140;5.602;2023-02-23T11:34:03;9.20;99.90
35593;DHT22;64447;52.140;5.602;2023-02-23T11:36:34;9.20;99.90
35593;DHT22;64447;52.140;5.602;2023-02-23T11:39:20;9.00;99.90
35593;DHT22;64447;52.140;5.602;2023-02-23T11:44:29;8.90;99.90
35593;DHT22;64447;52.140;5.602;2023-02-23T11:46:55;8.80;99.90
35593;DHT22;64447;52.140;5.602;2023-02-23T11:49:30;8.70;99.90
35593;DHT22;64447;52.140;5.602;2023-02-23T11:52:00;8.60;99.90
35593;DHT22;64447;52.140;5.602;2023-02-23T11:54:32;8.50;99.90
35593;DHT22;64447;52.140;5.602;2023-02-23T11:56:59;8.50;99.90
35593;DHT22;64447;52.140;5.602;2023-02-23T11:59:32;8.50;99.90
35593;DHT22;64447;52.140;5.602;2023-02-23T12:02:21;8.40;99.90
35593;DHT22;64447;52.140;5.602;2023-02-23T12:04:50;8.50;99.90
35593;DHT22;64447;52.140;5.602;2023-02-23T12:07:47;8.80;99.90
35593;DHT22;64447;52.140;5.602;2023-02-23T12:15:47;8.80;99.90
35593;DHT22;64447;52.140;5.602;2023-02-23T12:18:21;8.60;99.90
35593;DHT22;64447;52.140;5.602;2023-02-23T12:20:52;8.60;99.90
35593;DHT22;64447;52.140;5.602;2023-02-23T12:23:23;8.90;99.90
35593;DHT22;64447;52.140;5.602;2023-02-23T12:25:54;8.60;99.90
35593;DHT22;64447;52.140;5.602;2023-02-23T12:28:45;8.70;99.90
35593;DHT22;64447;52.140;5.602;2023-02-23T12:38:19;9.00;99.90
35593;DHT22;64447;52.140;5.602;2023-02-23T12:40:53;9.00;99.90
35593;DHT22;64447;52.140;5.602;2023-02-23T12:43:38;9.00;99.90
35593;DHT22;64447;52.140;5.602;2023-02-23T12:46:13;9.10;99.90
35593;DHT22;64447;52.140;5.602;2023-02-23T12:51:34;9.00;99.90
35593;DHT22;64447;52.140;5.602;2023-02-23T12:54:01;9.00;99.90
35593;DHT22;64447;52.140;5.602;2023-02-23T13:14:17;9.20;99.90
35593;DHT22;64447;52.140;5.602;2023-02-23T13:20:46;9.10;99.90
35593;DHT22;64447;52.140;5.602;2023-02-23T13:28:28;9.30;99.90
35593;DHT22;64447;52.140;5.602;2023-02-23T13:30:58;9.20;99.90
35593;DHT22;64447;52.140;5.602;2023-02-23T13:36:46;9.00;99.90
35593;DHT22;64447;52.140;5.602;2023-02-23T13:39:34;9.30;99.90
35593;DHT22;64447;52.140;5.602;2023-02-23T13:50:44;9.40;99.90
35593;DHT22;64447;52.140;5.602;2023-02-23T13:53:40;9.40;99.90
35593;DHT22;64447;52.140;5.602;2023-02-23T13:56:18;9.40;99.90
35593;DHT22;64447;52.140;5.602;2023-02-23T13:58:59;9.60;99.90
35593;DHT22;64447;52.140;5.602;2023-02-23T14:01:31;9.60;99.90
35593;DHT22;64447;52.140;5.602;2023-02-23T14:04:00;9.60;99.90
35593;DHT22;64447;52.140;5.602;2023-02-23T14:06:31;9.60;99.90
35593;DHT22;64447;52.140;5.602;2023-02-23T14:09:10;9.40;99.90
35593;DHT22;64447;52.140;5.602;2023-02-23T14:11:48;9.30;99.90
35593;DHT22;64447;52.140;5.602;2023-02-23T14:25:49;9.20;99.90
35593;DHT22;64447;52.140;5.602;2023-02-23T14:36:48;9.10;99.90
35593;DHT22;64447;52.140;5.602;2023-02-23T14:39:25;9.30;99.90
35593;DHT22;64447;52.140;5.602;2023-02-23T14:41:55;9.10;99.90
35593;DHT22;64447;52.140;5.602;2023-02-23T14:44:25;9.00;99.90
35593;DHT22;64447;52.140;5.602;2023-02-23T14:53:37;9.10;99.90
35593;DHT22;64447;52.140;5.602;2023-02-23T14:56:04;9.10;99.90
35593;DHT22;64447;52.140;5.602;2023-02-23T14:58:41;9.10;99.90
35593;DHT22;64447;52.140;5.602;2023-02-23T15:01:06;9.10;99.90
35593;DHT22;64447;52.140;5.602;2023-02-23T15:03:32;9.20;99.90
35593;DHT22;64447;52.140;5.602;2023-02-23T15:05:59;9.10;99.90
35593;DHT22;64447;52.140;5.602;2023-02-23T15:08:27;9.20;99.90
35593;DHT22;64447;52.140;5.602;2023-02-23T15:11:12;9.10;99.90
35593;DHT22;64447;52.140;5.602;2023-02-23T15:13:46;9.30;99.90
35593;DHT22;64447;52.140;5.602;2023-02-23T15:16:33;9.10;99.90
35593;DHT22;64447;52.140;5.602;2023-02-23T15:19:00;9.00;99.90
35593;DHT22;64447;52.140;5.602;2023-02-23T15:21:28;9.00;99.90
35593;DHT22;64447;52.140;5.602;2023-02-23T15:24:08;9.10;99.90
35593;DHT22;64447;52.140;5.602;2023-02-23T15:26:37;9.00;99.90
35593;DHT22;64447;52.140;5.602;2023-02-23T15:31:35;9.20;99.90
35593;DHT22;64447;52.140;5.602;2023-02-23T15:34:09;9.40;99.90
35593;DHT22;64447;52.140;5.602;2023-02-23T15:36:36;9.60;99.90
35593;DHT22;64447;52.140;5.602;2023-02-23T15:39:11;9.60;99.90
35593;DHT22;64447;52.140;5.602;2023-02-23T15:41:39;9.60;99.90
35593;DHT22;64447;52.140;5.602;2023-02-23T15:44:10;9.60;99.90
35593;DHT22;64447;52.140;5.602;2023-02-23T15:46:37;9.20;99.90
35593;DHT22;64447;52.140;5.602;2023-02-23T15:49:04;9.10;99.90
35593;DHT22;64447;52.140;5.602;2023-02-23T15:51:39;9.00;99.90
35593;DHT22;64447;52.140;5.602;2023-02-23T15:54:18;9.20;99.90
35593;DHT22;64447;52.140;5.602;2023-02-23T15:56:53;8.80;99.90
35593;DHT22;64447;52.140;5.602;2023-02-23T15:59:29;8.70;99.90
35593;DHT22;64447;52.140;5.602;2023-02-23T16:01:57;8.60;99.90
35593;DHT22;64447;52.140;5.602;2023-02-23T16:04:31;8.50;99.90
35593;DHT22;64447;52.140;5.602;2023-02-23T16:07:21;8.40;99.90
35593;DHT22;64447;52.140;5.602;2023-02-23T16:10:01;8.50;99.90
35593;DHT22;64447;52.140;5.602;2023-02-23T16:12:34;9.00;99.90
35593;DHT22;64447;52.140;5.602;2023-02-23T16:15:02;8.30;99.90
35593;DHT22;64447;52.140;5.602;2023-02-23T16:20:55;8.10;99.90
35593;DHT22;64447;52.140;5.602;2023-02-23T16:23:30;8.00;99.90
35593;DHT22;64447;52.140;5.602;2023-02-23T16:26:00;8.10;99.90
35593;DHT22;64447;52.140;5.602;2023-02-23T16:28:28;7.90;99.90
35593;DHT22;64447;52.140;5.602;2023-02-23T16:30:59;7.90;99.90
35593;DHT22;64447;52.140;5.602;2023-02-23T16:36:57;7.90;99.90
35593;DHT22;64447;52.140;5.602;2023-02-23T16:39:26;7.80;99.90
35593;DHT22;64447;52.140;5.602;2023-02-23T16:41:54;7.70;99.90
35593;DHT22;64447;52.140;5.602;2023-02-23T16:44:23;7.70;99.90
35593;DHT22;64447;52.140;5.602;2023-02-23T16:52:50;7.90;99.90
35593;DHT22;64447;52.140;5.602;2023-02-23T16:55:21;7.90;99.90
35593;DHT22;64447;52.140;5.602;2023-02-23T16:57:51;8.00;99.90
35593;DHT22;64447;52.140;5.602;2023-02-23T17:00:22;8.10;99.90
35593;DHT22;64447;52.140;5.602;2023-02-23T17:02:49;8.10;99.90
35593;DHT22;64447;52.140;5.602;2023-02-23T17:08:38;8.00;99.90
35593;DHT22;64447;52.140;5.602;2023-02-23T17:11:04;8.00;99.90
35593;DHT22;64447;52.140;5.602;2023-02-23T17:13:31;8.00;99.90
35593;DHT22;64447;52.140;5.602;2023-02-23T17:16:05;8.10;99.90
35593;DHT22;64447;52.140;5.602;2023-02-23T17:18:35;8.20;99.90
35593;DHT22;64447;52.140;5.602;2023-02-23T17:21:04;7.90;99.90
35593;DHT22;64447;52.140;5.602;2023-02-23T17:23:32;8.00;99.90
35593;DHT22;64447;52.140;5.602;2023-02-23T17:26:12;7.80;99.90
35593;DHT22;64447;52.140;5.602;2023-02-23T17:28:38;7.70;99.90
35593;DHT22;64447;52.140;5.602;2023-02-23T17:31:05;7.70;99.90
35593;DHT22;64447;52.140;5.602;2023-02-23T17:33:31;7.50;99.90
35593;DHT22;64447;52.140;5.602;2023-02-23T17:39:19;7.60;99.90
35593;DHT22;64447;52.140;5.602;2023-02-23T17:41:45;7.60;99.90
35593;DHT22;64447;52.140;5.602;2023-02-23T17:44:11;8.10;99.90
35593;DHT22;64447;52.140;5.602;2023-02-23T17:46:37;7.60;99.90
35593;DHT22;64447;52.140;5.602;2023-02-23T17:49:02;7.70;99.90
35593;DHT22;64447;52.140;5.602;2023-02-23T17:51:28;8.40;99.90
35593;DHT22;64447;52.140;5.602;2023-02-23T17:53:54;7.50;99.90
35593;DHT22;64447;52.140;5.602;2023-02-23T17:56:20;7.60;99.90
35593;DHT22;64447;52.140;5.602;2023-02-23T17:58:47;8.00;99.90
35593;DHT22;64447;52.140;5.602;2023-02-23T18:01:13;7.40;99.90
35593;DHT22;64447;52.140;5.602;2023-02-23T18:03:38;8.00;99.90
35593;DHT22;64447;52.140;5.602;2023-02-23T18:09:27;7.30;99.90
35593;DHT22;64447;52.140;5.602;2023-02-23T18:11:52;7.30;99.90
35593;DHT22;64447;52.140;5.602;2023-02-23T18:14:20;7.20;99.90
35593;DHT22;64447;52.140;5.602;2023-02-23T18:16:46;7.20;99.90
35593;DHT22;64447;52.140;5.602;2023-02-23T18:19:11;7.20;99.90
35593;DHT22;64447;52.140;5.602;2023-02-23T18:21:38;7.20;99.90
35593;DHT22;64447;52.140;5.602;2023-02-23T18:24:05;7.20;99.90
35593;DHT22;64447;52.140;5.602;2023-02-23T18:26:31;7.20;99.90
35593;DHT22;64447;52.140;5.602;2023-02-23T18:28:56;7.20;99.90
35593;DHT22;64447;52.140;5.602;2023-02-23T18:31:25;7.10;99.90
35593;DHT22;64447;52.140;5.602;2023-02-23T18:33:54;7.00;99.90
35593;DHT22;64447;52.140;5.602;2023-02-23T18:39:42;7.10;99.90
35593;DHT22;64447;52.140;5.602;2023-02-23T18:42:08;7.00;99.90
35593;DHT22;64447;52.140;5.602;2023-02-23T18:44:33;7.00;99.90
35593;DHT22;64447;52.140;5.602;2023-02-23T18:46:59;7.10;99.90
35593;DHT22;64447;52.140;5.602;2023-02-23T18:49:24;6.90;99.90
35593;DHT22;64447;52.140;5.602;2023-02-23T18:51:50;7.00;99.90
35593;DHT22;64447;52.140;5.602;2023-02-23T18:54:16;7.00;99.90
35593;DHT22;64447;52.140;5.602;2023-02-23T18:56:47;7.10;99.90
35593;DHT22;64447;52.140;5.602;2023-02-23T18:59:13;7.10;99.90
35593;DHT22;64447;52.140;5.602;2023-02-23T19:01:39;7.20;99.90
35593;DHT22;64447;52.140;5.602;2023-02-23T19:04:07;7.00;99.90
35593;DHT22;64447;52.140;5.602;2023-02-23T19:06:33;6.80;99.90
35593;DHT22;64447;52.140;5.602;2023-02-23T19:09:00;6.80;99.90
35593;DHT22;64447;52.140;5.602;2023-02-23T19:11:32;6.50;99.90
35593;DHT22;64447;52.140;5.602;2023-02-23T19:14:01;6.50;99.90
35593;DHT22;64447;52.140;5.602;2023-02-23T19:16:29;6.60;99.90
35593;DHT22;64447;52.140;5.602;2023-02-23T19:18:56;6.60;99.90
35593;DHT22;64447;52.140;5.602;2023-02-23T19:24:46;6.90;99.90
35593;DHT22;64447;52.140;5.602;2023-02-23T19:27:12;6.80;99.10
35593;DHT22;64447;52.140;5.602;2023-02-23T19:29:39;6.50;99.70
35593;DHT22;64447;52.140;5.602;2023-02-23T19:32:05;6.70;99.60
35593;DHT22;64447;52.140;5.602;2023-02-23T19:34:30;6.50;99.70
35593;DHT22;64447;52.140;5.602;2023-02-23T19:36:56;7.20;99.50
35593;DHT22;64447;52.140;5.602;2023-02-23T19:39:21;7.10;99.10
35593;DHT22;64447;52.140;5.602;2023-02-23T19:41:47;7.80;99.00
35593;DHT22;64447;52.140;5.602;2023-02-23T19:44:13;7.50;97.30
35593;DHT22;64447;52.140;5.602;2023-02-23T19:46:38;7.50;97.30
35593;DHT22;64447;52.140;5.602;2023-02-23T19:49:05;7.60;97.30
35593;DHT22;64447;52.140;5.602;2023-02-23T19:54:53;7.30;97.00
35593;DHT22;64447;52.140;5.602;2023-02-23T19:57:18;7.90;96.80
35593;DHT22;64447;52.140;5.602;2023-02-23T19:59:45;7.70;96.90